CG Campbell — NRDC — position and weather

sailwx.info

Track history (hours):
 
Tides and Currents Weather Stations Pressure Air Temp Water Temp Dewpoint Dewpoint Depression Visibility Wind Speed Wind Dir Waves Ship Positions

CG Campbell

Last reported at 2017-Nov-19 19:30 UTC. Time now 2017-Nov-19 19:57 UTC.
Position N 42°10' W 070°29'.

Length 82 m; draft 4.3 m.

Type: SAR. MMSI: 367289000.

Date/timePositionNaut miles runAvg speedWind from/ knotsBaromVisibWave heightAir tempDewpointWater temp
2017-Nov-19 19:30N 42°10' W 070°29'7 6.6
2017-Nov-19 18:28N 42°09' W 070°20'510.2
2017-Nov-19 18:00N 42°10' W 070°26'2 3.8
2017-Nov-19 17:30N 42°09' W 070°28'1 2.3
2017-Nov-19 17:00N 42°08' W 070°27'8 6.8
2017-Nov-19 15:52N 42°10' W 070°17'7 7.4
2017-Nov-19 14:53N 42°10' W 070°27'6 5.4
2017-Nov-19 13:45N 42°09' W 070°19'2 5.5
2017-Nov-19 13:20N 42°08' W 070°21'3 9.0
2017-Nov-19 13:00N 42°10' W 070°24'8 8.9
2017-Nov-19 12:10N 42°08' W 070°33'1 9.5
2017-Nov-19 12:00N 42°08' W 070°31'5 9.7
2017-Nov-19 11:30N 42°10' W 070°25'5 9.6
2017-Nov-19 11:00N 42°11' W 070°19'9 7.8
2017-Nov-19 09:48N 42°10' W 070°31'2 5.8
2017-Nov-19 09:29N 42°09' W 070°29'5 9.7
2017-Nov-19 09:00N 42°10' W 070°23'1 2.0
2017-Nov-19 08:22N 42°09' W 070°21'2 3.7
2017-Nov-19 07:51N 42°07' W 070°21'3 9.1
2017-Nov-19 07:30N 42°11' W 070°22'10 5.8
2017-Nov-19 05:49N 42°20' W 070°18'4 9.3
2017-Nov-19 05:25N 42°20' W 070°14'511.2
2017-Nov-19 05:00N 42°20' W 070°07'610.2
2017-Nov-19 04:25N 42°18' W 069°59'48 6.3
2017-Nov-18 20:45N 41°31' W 069°45'  
2017-Nov-14 05:14N 42°18' W 069°58'410.6
2017-Nov-14 04:52N 42°17' W 070°03'411.4
2017-Nov-14 04:30N 42°17' W 070°08'611.8
2017-Nov-14 04:00N 42°18' W 070°16'611.7
2017-Nov-14 03:30N 42°19' W 070°24'611.4
2017-Nov-14 03:00N 42°19' W 070°32'611.4
2017-Nov-14 02:30N 42°19' W 070°39'3 5.8
2017-Nov-14 02:00N 42°21' W 070°42'611.8
2017-Nov-14 01:31N 42°23' W 070°50'611.3
2017-Nov-14 01:00N 42°20' W 070°57'3 6.4
2017-Nov-14 00:29N 42°21' W 071°01'1 3.1
2017-Nov-14 00:00N 42°22' W 071°03'0 0.5
2017-Nov-13 23:30N 42°22' W 071°03'0 0.0
2017-Nov-13 23:00N 42°22' W 071°03'0 0.0
2017-Nov-13 22:30N 42°22' W 071°03'0 0.0
2017-Nov-13 22:00N 42°22' W 071°03'31 0.7
2017-Nov-12 02:24N 42°28' W 070°22'511.6
2017-Nov-12 02:00N 42°31' W 070°27'611.6
2017-Nov-12 01:30N 42°33' W 070°35'4 8.0
2017-Nov-12 01:00N 42°34' W 070°40'2 3.1
2017-Nov-12 00:30N 42°34' W 070°38'3 5.3
2017-Nov-12 00:00N 42°34' W 070°35'3 5.2
2017-Nov-11 23:30N 42°35' W 070°31'1 2.0
2017-Nov-11 23:00N 42°35' W 070°30'3 5.8
2017-Nov-11 22:30N 42°37' W 070°26'3 5.6
2017-Nov-11 22:00N 42°38' W 070°23'3 5.1
2017-Nov-11 21:30N 42°39' W 070°20'3 5.2
2017-Nov-11 21:00N 42°40' W 070°17'2 3.2
2017-Nov-11 20:30N 42°41' W 070°15'2 4.4
2017-Nov-11 20:00N 42°42' W 070°12'3 5.5
2017-Nov-11 19:30N 42°43' W 070°09'3 5.3
2017-Nov-11 19:00N 42°45' W 070°06'3 5.3
2017-Nov-11 18:30N 42°46' W 070°03'3 5.3
2017-Nov-11 18:00N 42°48' W 070°00'5 0.5
2017-Nov-11 07:03N 42°53' W 069°57'1 9.4
2017-Nov-11 07:00N 42°52' W 069°57'5 9.4
2017-Nov-11 06:25N 42°47' W 069°59'4 9.2
2017-Nov-11 05:59N 42°43' W 070°01'5 9.2
2017-Nov-11 05:25N 42°38' W 070°03'5 9.0
2017-Nov-11 04:52N 42°33' W 070°05'3 8.8
2017-Nov-11 04:30N 42°30' W 070°06'4 8.3
2017-Nov-11 04:00N 42°26' W 070°07'4 8.3
2017-Nov-11 03:30N 42°22' W 070°09'510.1
2017-Nov-11 03:01N 42°18' W 070°10'816.1
2017-Nov-11 02:30N 42°18' W 070°21'815.8
2017-Nov-11 02:00N 42°19' W 070°32'1913.0
2017-Nov-11 00:30N 42°20' W 070°58'4 8.2
2017-Nov-11 00:00N 42°22' W 071°03'0 0.0
2017-Nov-10 22:02N 42°22' W 071°03'0 0.0
2017-Nov-10 21:56N 42°22' W 071°03'0 0.0
2017-Nov-10 21:20N 42°22' W 071°03'0 0.0
2017-Nov-10 20:53N 42°22' W 071°03'0 0.0
2017-Nov-10 20:26N 42°22' W 071°03'0 0.0
2017-Nov-10 19:54N 42°22' W 071°03'0 0.0
2017-Nov-10 19:30N 42°22' W 071°03'0 0.0
2017-Nov-10 18:56N 42°22' W 071°03'0 0.0
2017-Nov-10 18:29N 42°22' W 071°03'0 0.0
2017-Nov-10 17:59N 42°22' W 071°03'0 0.0
2017-Nov-10 17:14N 42°22' W 071°03'0 0.0
2017-Nov-10 16:50N 42°22' W 071°03'0 0.0
2017-Nov-10 16:26N 42°22' W 071°03'0 0.0
2017-Nov-10 15:53N 42°22' W 071°03'0 0.0
2017-Nov-10 15:29N 42°22' W 071°03'0 0.0
2017-Nov-10 14:59N 42°22' W 071°03'0 0.0
2017-Nov-10 14:29N 42°22' W 071°03'0 0.0
2017-Nov-10 13:59N 42°22' W 071°03'0 0.0
2017-Nov-10 13:05N 42°22' W 071°03'0 0.0
2017-Nov-10 12:56N 42°22' W 071°03'0 0.0
2017-Nov-10 12:29N 42°22' W 071°03'0 0.0
2017-Nov-10 11:57N 42°22' W 071°03'0 0.0
2017-Nov-10 11:24N 42°22' W 071°03'0 0.0
2017-Nov-10 10:47N 42°22' W 071°03'0 0.0
2017-Nov-10 10:23N 42°22' W 071°03'0 0.0
2017-Nov-10 09:59N 42°22' W 071°03'0 0.0
2017-Nov-10 09:29N 42°22' W 071°03'0 0.0
2017-Nov-10 08:59N 42°22' W 071°03'0 0.0
2017-Nov-10 08:29N 42°22' W 071°03'0 0.0
2017-Nov-10 07:59N 42°22' W 071°03'0 0.0
2017-Nov-10 07:29N 42°22' W 071°03'0 0.0
2017-Nov-10 06:53N 42°22' W 071°03'0 0.0
2017-Nov-10 06:29N 42°22' W 071°03'0 0.0
2017-Nov-10 05:59N 42°22' W 071°03'0 0.0
2017-Nov-10 05:26N 42°22' W 071°03'0 0.0
2017-Nov-10 04:50N 42°22' W 071°03'0 0.0
2017-Nov-10 04:29N 42°22' W 071°03'0 0.0
2017-Nov-10 03:59N 42°22' W 071°03'0 0.0
2017-Nov-10 03:30N 42°22' W 071°03'0 0.0
2017-Nov-10 03:00N 42°22' W 071°03'0 0.0
2017-Nov-10 02:30N 42°22' W 071°03'0 0.0
2017-Nov-10 01:47N 42°22' W 071°03'0 0.0
2017-Nov-10 01:29N 42°22' W 071°03'0 0.0
2017-Nov-10 00:59N 42°22' W 071°03'0 0.0
2017-Nov-10 00:29N 42°22' W 071°03'0 0.0
2017-Nov-09 23:59N 42°22' W 071°03'0 0.0
2017-Nov-09 23:29N 42°22' W 071°03'0 0.0
2017-Nov-09 22:59N 42°22' W 071°03'0 0.0
2017-Nov-09 22:29N 42°22' W 071°03'0 0.0
2017-Nov-09 21:59N 42°22' W 071°03'0 0.0
2017-Nov-09 21:29N 42°22' W 071°03'0 0.0
2017-Nov-09 20:59N 42°22' W 071°03'0 0.0
2017-Nov-09 20:29N 42°22' W 071°03'0 0.0
2017-Nov-09 19:47N 42°22' W 071°03'  
Track history (hours):
 
Tides and Currents Weather Stations Pressure Air Temp Water Temp Dewpoint Dewpoint Depression Visibility Wind Speed Wind Dir Waves Ship Positions

CG Campbell

Last reported at 2017-Nov-19 19:30 UTC. Time now 2017-Nov-19 19:57 UTC.
Position N 42°10' W 070°29'.

Length 82 m; draft 4.3 m.

Type: SAR. MMSI: 367289000.

Date/timePositionNaut miles runAvg speedWind from/ knotsBaromVisibWave heightAir tempDewpointWater temp
2017-Nov-19 19:30N 42°10' W 070°29'7 6.6
2017-Nov-19 18:28N 42°09' W 070°20'510.2
2017-Nov-19 18:00N 42°10' W 070°26'2 3.8
2017-Nov-19 17:30N 42°09' W 070°28'1 2.3
2017-Nov-19 17:00N 42°08' W 070°27'8 6.8
2017-Nov-19 15:52N 42°10' W 070°17'7 7.4
2017-Nov-19 14:53N 42°10' W 070°27'6 5.4
2017-Nov-19 13:45N 42°09' W 070°19'2 5.5
2017-Nov-19 13:20N 42°08' W 070°21'3 9.0
2017-Nov-19 13:00N 42°10' W 070°24'8 8.9
2017-Nov-19 12:10N 42°08' W 070°33'1 9.5
2017-Nov-19 12:00N 42°08' W 070°31'5 9.7
2017-Nov-19 11:30N 42°10' W 070°25'5 9.6
2017-Nov-19 11:00N 42°11' W 070°19'9 7.8
2017-Nov-19 09:48N 42°10' W 070°31'2 5.8
2017-Nov-19 09:29N 42°09' W 070°29'5 9.7
2017-Nov-19 09:00N 42°10' W 070°23'1 2.0
2017-Nov-19 08:22N 42°09' W 070°21'2 3.7
2017-Nov-19 07:51N 42°07' W 070°21'3 9.1
2017-Nov-19 07:30N 42°11' W 070°22'10 5.8
2017-Nov-19 05:49N 42°20' W 070°18'4 9.3
2017-Nov-19 05:25N 42°20' W 070°14'511.2
2017-Nov-19 05:00N 42°20' W 070°07'610.2
2017-Nov-19 04:25N 42°18' W 069°59'48 6.3
2017-Nov-18 20:45N 41°31' W 069°45'  
2017-Nov-14 05:14N 42°18' W 069°58'410.6
2017-Nov-14 04:52N 42°17' W 070°03'411.4
2017-Nov-14 04:30N 42°17' W 070°08'611.8
2017-Nov-14 04:00N 42°18' W 070°16'611.7
2017-Nov-14 03:30N 42°19' W 070°24'611.4
2017-Nov-14 03:00N 42°19' W 070°32'611.4
2017-Nov-14 02:30N 42°19' W 070°39'3 5.8
2017-Nov-14 02:00N 42°21' W 070°42'611.8
2017-Nov-14 01:31N 42°23' W 070°50'611.3
2017-Nov-14 01:00N 42°20' W 070°57'3 6.4
2017-Nov-14 00:29N 42°21' W 071°01'1 3.1
2017-Nov-14 00:00N 42°22' W 071°03'0 0.5
2017-Nov-13 23:30N 42°22' W 071°03'0 0.0
2017-Nov-13 23:00N 42°22' W 071°03'0 0.0
2017-Nov-13 22:30N 42°22' W 071°03'0 0.0
2017-Nov-13 22:00N 42°22' W 071°03'31 0.7
2017-Nov-12 02:24N 42°28' W 070°22'511.6
2017-Nov-12 02:00N 42°31' W 070°27'611.6
2017-Nov-12 01:30N 42°33' W 070°35'4 8.0
2017-Nov-12 01:00N 42°34' W 070°40'2 3.1
2017-Nov-12 00:30N 42°34' W 070°38'3 5.3
2017-Nov-12 00:00N 42°34' W 070°35'3 5.2
2017-Nov-11 23:30N 42°35' W 070°31'1 2.0
2017-Nov-11 23:00N 42°35' W 070°30'3 5.8
2017-Nov-11 22:30N 42°37' W 070°26'3 5.6
2017-Nov-11 22:00N 42°38' W 070°23'3 5.1
2017-Nov-11 21:30N 42°39' W 070°20'3 5.2
2017-Nov-11 21:00N 42°40' W 070°17'2 3.2
2017-Nov-11 20:30N 42°41' W 070°15'2 4.4
2017-Nov-11 20:00N 42°42' W 070°12'3 5.5
2017-Nov-11 19:30N 42°43' W 070°09'3 5.3
2017-Nov-11 19:00N 42°45' W 070°06'3 5.3
2017-Nov-11 18:30N 42°46' W 070°03'3 5.3
2017-Nov-11 18:00N 42°48' W 070°00'5 0.5
2017-Nov-11 07:03N 42°53' W 069°57'1 9.4
2017-Nov-11 07:00N 42°52' W 069°57'5 9.4
2017-Nov-11 06:25N 42°47' W 069°59'4 9.2
2017-Nov-11 05:59N 42°43' W 070°01'5 9.2
2017-Nov-11 05:25N 42°38' W 070°03'5 9.0
2017-Nov-11 04:52N 42°33' W 070°05'3 8.8
2017-Nov-11 04:30N 42°30' W 070°06'4 8.3
2017-Nov-11 04:00N 42°26' W 070°07'4 8.3
2017-Nov-11 03:30N 42°22' W 070°09'510.1
2017-Nov-11 03:01N 42°18' W 070°10'816.1
2017-Nov-11 02:30N 42°18' W 070°21'815.8
2017-Nov-11 02:00N 42°19' W 070°32'1913.0
2017-Nov-11 00:30N 42°20' W 070°58'4 8.2
2017-Nov-11 00:00N 42°22' W 071°03'0 0.0
2017-Nov-10 22:02N 42°22' W 071°03'0 0.0
2017-Nov-10 21:56N 42°22' W 071°03'0 0.0
2017-Nov-10 21:20N 42°22' W 071°03'0 0.0
2017-Nov-10 20:53N 42°22' W 071°03'0 0.0
2017-Nov-10 20:26N 42°22' W 071°03'0 0.0
2017-Nov-10 19:54N 42°22' W 071°03'0 0.0
2017-Nov-10 19:30N 42°22' W 071°03'0 0.0
2017-Nov-10 18:56N 42°22' W 071°03'0 0.0
2017-Nov-10 18:29N 42°22' W 071°03'0 0.0
2017-Nov-10 17:59N 42°22' W 071°03'0 0.0
2017-Nov-10 17:14N 42°22' W 071°03'0 0.0
2017-Nov-10 16:50N 42°22' W 071°03'0 0.0
2017-Nov-10 16:26N 42°22' W 071°03'0 0.0
2017-Nov-10 15:53N 42°22' W 071°03'0 0.0
2017-Nov-10 15:29N 42°22' W 071°03'0 0.0
2017-Nov-10 14:59N 42°22' W 071°03'0 0.0
2017-Nov-10 14:29N 42°22' W 071°03'0 0.0
2017-Nov-10 13:59N 42°22' W 071°03'0 0.0
2017-Nov-10 13:05N 42°22' W 071°03'0 0.0
2017-Nov-10 12:56N 42°22' W 071°03'0 0.0
2017-Nov-10 12:29N 42°22' W 071°03'0 0.0
2017-Nov-10 11:57N 42°22' W 071°03'0 0.0
2017-Nov-10 11:24N 42°22' W 071°03'0 0.0
2017-Nov-10 10:47N 42°22' W 071°03'0 0.0
2017-Nov-10 10:23N 42°22' W 071°03'0 0.0
2017-Nov-10 09:59N 42°22' W 071°03'0 0.0
2017-Nov-10 09:29N 42°22' W 071°03'0 0.0
2017-Nov-10 08:59N 42°22' W 071°03'0 0.0
2017-Nov-10 08:29N 42°22' W 071°03'0 0.0
2017-Nov-10 07:59N 42°22' W 071°03'0 0.0
2017-Nov-10 07:29N 42°22' W 071°03'0 0.0
2017-Nov-10 06:53N 42°22' W 071°03'0 0.0
2017-Nov-10 06:29N 42°22' W 071°03'0 0.0
2017-Nov-10 05:59N 42°22' W 071°03'0 0.0
2017-Nov-10 05:26N 42°22' W 071°03'0 0.0
2017-Nov-10 04:50N 42°22' W 071°03'0 0.0
2017-Nov-10 04:29N 42°22' W 071°03'0 0.0
2017-Nov-10 03:59N 42°22' W 071°03'0 0.0
2017-Nov-10 03:30N 42°22' W 071°03'0 0.0
2017-Nov-10 03:00N 42°22' W 071°03'0 0.0
2017-Nov-10 02:30N 42°22' W 071°03'0 0.0
2017-Nov-10 01:47N 42°22' W 071°03'0 0.0
2017-Nov-10 01:29N 42°22' W 071°03'0 0.0
2017-Nov-10 00:59N 42°22' W 071°03'0 0.0
2017-Nov-10 00:29N 42°22' W 071°03'0 0.0
2017-Nov-09 23:59N 42°22' W 071°03'0 0.0
2017-Nov-09 23:29N 42°22' W 071°03'0 0.0
2017-Nov-09 22:59N 42°22' W 071°03'0 0.0
2017-Nov-09 22:29N 42°22' W 071°03'0 0.0
2017-Nov-09 21:59N 42°22' W 071°03'0 0.0
2017-Nov-09 21:29N 42°22' W 071°03'0 0.0
2017-Nov-09 20:59N 42°22' W 071°03'0 0.0
2017-Nov-09 20:29N 42°22' W 071°03'0 0.0
2017-Nov-09 19:47N 42°22' W 071°03'  

Dump ship's entire track history